Delta Virtual Airport Information Service

Birmingham Shuttlesworth International Airport

ICAO: KBHM Country: United States
Latitude: 33.5639 Longitude: -86.7523
Latest Arrival : DAC6709 (KCVG-KBHM) Latest Departure : DAC2344 (KBHM-KRDU)


WX CaptureLIVE
Data provided by noaa.gov | Fetched at 13:32:34

METAR : KBHM 281753Z 19013KT 10SM FEW036 BKN250 28/19 A2986 RMK AO2 SLP103 T02830194 10294 20217 58019

TAF : KBHM 281720Z 2818/2918 21010KT P6SM SCT040 FM282000 27011KT 5SM RA VCTS OVC025CB FM290000 35011KT P6SM SHRA OVC025 FM290600 33008KT P6SM BKN100


Runway Data for KBHM
Data provided by openaviationdata.com

Runway ID Mag Var Hdg Length Elevation Surface ILS Freq ILS Id ILS Slope
6 -1 56° 9999 ft 644 ft Asphalt 110.3 IBHM 3
18 -1 181° 7112 ft 644 ft Asphalt 111.3 IBXO 0
24 -1 236° 9999 ft 644 ft Asphalt 109.5 IROE 3
36 -1 7112 ft 644 ft Asphalt -- -- --

Birmingham Shuttlesworth International Airport, United States
Use only for reference purposes



Not for navigational purposes.